createdAt,value
2018-12-25T00:00:46.534Z,-0.09
2018-12-25T00:03:17.246Z,-0.07
2018-12-25T00:05:47.725Z,-0.07
2018-12-25T00:08:18.179Z,-0.05
2018-12-25T00:10:48.673Z,-0.05
2018-12-25T00:13:19.293Z,-0.07
2018-12-25T00:15:49.823Z,-0.05
2018-12-25T00:18:20.335Z,-0.07
2018-12-25T00:20:50.899Z,-0.08
2018-12-25T00:23:21.363Z,-0.11
2018-12-25T00:25:51.825Z,-0.09
2018-12-25T00:28:23.262Z,-0.07
2018-12-25T00:30:53.885Z,-0.09
2018-12-25T00:33:24.484Z,-0.11
2018-12-25T00:35:55.182Z,-0.11
2018-12-25T00:38:25.599Z,-0.11
2018-12-25T00:40:56.083Z,-0.16
2018-12-25T00:43:26.676Z,-0.12
2018-12-25T00:45:57.152Z,-0.18
2018-12-25T00:48:27.590Z,-0.14
2018-12-25T00:50:58.202Z,-0.19
2018-12-25T00:53:28.579Z,-0.23
2018-12-25T00:55:58.940Z,-0.21
2018-12-25T00:58:29.464Z,-0.23
2018-12-25T01:00:59.855Z,-0.27
2018-12-25T01:03:30.362Z,-0.22
2018-12-25T01:06:01.042Z,-0.20
2018-12-25T01:08:31.534Z,-0.19
2018-12-25T01:11:02.115Z,-0.18
2018-12-25T01:13:32.665Z,-0.16
2018-12-25T01:16:03.225Z,-0.17
2018-12-25T01:18:33.857Z,-0.14
2018-12-25T01:21:04.479Z,-0.13
2018-12-25T01:23:34.997Z,-0.08
2018-12-25T01:26:05.633Z,-0.07
2018-12-25T01:28:36.506Z,-0.05
2018-12-25T01:31:06.975Z,-0.05
2018-12-25T01:33:37.403Z,-0.02
2018-12-25T01:36:08.355Z,0.02
2018-12-25T01:38:38.773Z,0.04
2018-12-25T01:41:09.359Z,0.03
2018-12-25T01:43:39.833Z,0.02
2018-12-25T01:46:10.585Z,0.08
2018-12-25T01:48:41.055Z,0.07
2018-12-25T01:51:12.025Z,0.11
2018-12-25T01:53:42.530Z,0.12
2018-12-25T01:56:13.063Z,0.15
2018-12-25T01:58:44.505Z,0.18
2018-12-25T02:01:15.005Z,0.18
2018-12-25T02:03:45.510Z,0.17
2018-12-25T02:06:16.005Z,0.18
2018-12-25T02:08:46.587Z,0.19
2018-12-25T02:11:17.083Z,0.24
2018-12-25T02:13:47.721Z,0.25
2018-12-25T02:16:18.259Z,0.26
2018-12-25T02:18:48.760Z,0.24
2018-12-25T02:21:19.145Z,0.26
2018-12-25T02:23:49.592Z,0.23
2018-12-25T02:26:20.103Z,0.25
2018-12-25T02:28:50.623Z,0.24
2018-12-25T02:31:21.193Z,0.23
2018-12-25T02:33:51.689Z,0.23
2018-12-25T02:36:22.133Z,0.27
2018-12-25T02:38:52.623Z,0.28
2018-12-25T02:41:23.179Z,0.32
2018-12-25T02:43:53.676Z,0.31
2018-12-25T02:46:24.202Z,0.29
2018-12-25T02:48:54.804Z,0.36
2018-12-25T02:51:25.463Z,0.40
2018-12-25T02:53:55.923Z,0.40
2018-12-25T02:56:26.555Z,0.42
2018-12-25T02:58:57.050Z,0.44
2018-12-25T03:01:27.547Z,0.47
2018-12-25T03:03:57.953Z,0.52
2018-12-25T03:06:28.634Z,0.53
2018-12-25T03:08:59.220Z,0.57
2018-12-25T03:11:29.756Z,0.56
2018-12-25T03:14:00.179Z,0.55
2018-12-25T03:16:30.755Z,0.62
2018-12-25T03:19:01.213Z,0.60
2018-12-25T03:21:31.722Z,0.65
2018-12-25T03:24:02.285Z,0.66
2018-12-25T03:26:32.815Z,0.69
2018-12-25T03:29:03.350Z,0.70
2018-12-25T03:31:33.961Z,0.71
2018-12-25T03:34:04.575Z,0.73
2018-12-25T03:36:35.102Z,0.75
2018-12-25T03:39:07.860Z,0.77
2018-12-25T03:41:38.373Z,0.77
2018-12-25T03:44:08.851Z,0.76
2018-12-25T03:46:39.510Z,0.77
2018-12-25T03:49:10.000Z,0.80
2018-12-25T03:51:40.381Z,0.80
2018-12-25T03:54:10.831Z,0.81
2018-12-25T03:56:41.220Z,0.81
2018-12-25T03:59:11.854Z,0.82
2018-12-25T04:01:42.311Z,0.82
2018-12-25T04:04:12.673Z,0.82
2018-12-25T04:06:43.246Z,0.80
2018-12-25T04:09:14.439Z,0.81
2018-12-25T04:11:44.969Z,0.79
2018-12-25T04:14:15.520Z,0.82
2018-12-25T04:16:46.175Z,0.78
2018-12-25T04:19:16.750Z,0.73
2018-12-25T04:21:47.210Z,0.78
2018-12-25T04:24:17.640Z,0.77
2018-12-25T04:26:48.119Z,0.74
2018-12-25T04:29:18.502Z,0.71
2018-12-25T04:31:48.946Z,0.68
2018-12-25T04:34:19.450Z,0.69
2018-12-25T04:36:49.920Z,0.71
2018-12-25T04:39:21.194Z,0.74
2018-12-25T04:41:51.741Z,0.77
2018-12-25T04:44:22.185Z,0.83
2018-12-25T04:46:52.676Z,0.82
2018-12-25T04:49:23.196Z,0.85
2018-12-25T04:51:53.576Z,0.90
2018-12-25T04:54:24.180Z,0.90
2018-12-25T04:56:54.759Z,0.91
2018-12-25T04:59:25.110Z,0.85
2018-12-25T05:01:55.551Z,0.88
2018-12-25T05:04:25.924Z,0.90
2018-12-25T05:06:56.845Z,0.90
2018-12-25T05:09:27.314Z,0.93
2018-12-25T05:11:57.743Z,0.88
2018-12-25T05:14:28.300Z,0.85
2018-12-25T05:16:58.883Z,0.88
2018-12-25T05:19:29.220Z,0.89
2018-12-25T05:21:59.630Z,0.88
2018-12-25T05:24:30.056Z,0.90
2018-12-25T05:27:00.660Z,0.92
2018-12-25T05:29:31.209Z,0.91
2018-12-25T05:32:01.600Z,0.89
2018-12-25T05:34:32.178Z,0.91
2018-12-25T05:37:02.811Z,0.91
2018-12-25T05:39:33.304Z,0.92
2018-12-25T05:42:03.779Z,0.95
2018-12-25T05:44:34.134Z,0.98
2018-12-25T05:47:04.636Z,0.98
2018-12-25T05:49:35.114Z,1.00
2018-12-25T05:52:05.655Z,1.01
2018-12-25T05:54:36.043Z,1.03
2018-12-25T05:57:06.651Z,1.00
2018-12-25T05:59:37.156Z,1.07
2018-12-25T06:02:07.830Z,1.08
2018-12-25T06:04:38.231Z,1.07
2018-12-25T06:07:08.743Z,1.12
2018-12-25T06:09:39.235Z,1.11
2018-12-25T06:12:09.635Z,1.12
2018-12-25T06:14:40.184Z,1.13
2018-12-25T06:17:10.653Z,1.13
2018-12-25T06:19:41.163Z,1.08
2018-12-25T06:22:11.555Z,1.06
2018-12-25T06:24:42.083Z,1.07
2018-12-25T06:27:12.785Z,0.99
2018-12-25T06:29:43.225Z,0.97
2018-12-25T06:32:13.820Z,0.97
2018-12-25T06:34:44.505Z,0.91
2018-12-25T06:37:15.026Z,0.92
2018-12-25T06:39:45.525Z,0.86
2018-12-25T06:42:15.964Z,0.88
2018-12-25T06:44:46.655Z,0.89
2018-12-25T06:47:17.063Z,0.85
2018-12-25T06:49:47.492Z,0.88
2018-12-25T06:52:17.951Z,0.86
2018-12-25T06:54:48.315Z,0.84
2018-12-25T06:57:18.820Z,0.94
2018-12-25T06:59:49.399Z,0.94
2018-12-25T07:02:19.846Z,1.00
2018-12-25T07:04:50.331Z,1.04
2018-12-25T07:07:20.749Z,1.06
2018-12-25T07:09:51.387Z,1.06
2018-12-25T07:12:21.900Z,1.06
2018-12-25T07:14:52.350Z,1.06
2018-12-25T07:17:22.788Z,1.07
2018-12-25T07:19:53.485Z,1.06
2018-12-25T07:22:23.854Z,1.11
2018-12-25T07:24:54.288Z,1.08
2018-12-25T07:27:24.695Z,1.13
2018-12-25T07:29:55.119Z,1.11
2018-12-25T07:32:25.574Z,1.11
2018-12-25T07:34:56.048Z,1.18
2018-12-25T07:37:26.700Z,1.21
2018-12-25T07:39:57.189Z,1.24
2018-12-25T07:42:27.710Z,1.30
2018-12-25T07:44:58.209Z,1.36
2018-12-25T07:47:28.658Z,1.35
2018-12-25T07:49:59.144Z,1.41
2018-12-25T07:52:29.910Z,1.48
2018-12-25T07:55:00.344Z,1.51
2018-12-25T07:57:30.849Z,1.55
2018-12-25T08:00:01.439Z,1.59
2018-12-25T08:02:32.072Z,1.63
2018-12-25T08:05:02.604Z,1.68
2018-12-25T08:07:33.388Z,1.72
2018-12-25T08:10:04.178Z,1.76
2018-12-25T08:12:34.624Z,1.82
2018-12-25T08:15:05.325Z,1.84
2018-12-25T08:17:35.842Z,1.86
2018-12-25T08:20:07.215Z,1.90
2018-12-25T08:22:37.771Z,1.91
2018-12-25T08:25:08.242Z,1.96
2018-12-25T08:27:38.674Z,1.99
2018-12-25T08:30:09.319Z,2.01
2018-12-25T08:32:39.748Z,2.02
2018-12-25T08:35:10.095Z,2.05
2018-12-25T08:37:40.446Z,2.04
2018-12-25T08:40:11.132Z,2.08
2018-12-25T08:42:41.601Z,2.09
2018-12-25T08:45:11.994Z,2.09
2018-12-25T08:47:42.834Z,2.09
2018-12-25T08:50:14.695Z,2.09
2018-12-25T08:52:45.688Z,2.13
2018-12-25T08:55:16.148Z,2.11
2018-12-25T08:57:46.611Z,2.06
2018-12-25T09:00:17.199Z,2.07
2018-12-25T09:02:47.590Z,2.03
2018-12-25T09:05:18.032Z,1.98
2018-12-25T09:07:48.545Z,2.00
2018-12-25T09:10:18.982Z,2.05
2018-12-25T09:12:49.415Z,2.06
2018-12-25T09:15:20.054Z,2.03
2018-12-25T09:17:50.583Z,2.04
2018-12-25T09:20:21.044Z,2.07
2018-12-25T09:22:51.643Z,2.08
2018-12-25T09:25:22.212Z,2.03
2018-12-25T09:27:52.616Z,1.95
2018-12-25T09:30:23.250Z,1.90
2018-12-25T09:32:53.739Z,1.93
2018-12-25T09:35:24.378Z,1.88
2018-12-25T09:37:54.928Z,1.83
2018-12-25T09:40:25.382Z,1.74
2018-12-25T09:42:55.816Z,1.76
2018-12-25T09:45:26.343Z,1.81
2018-12-25T09:47:56.767Z,1.79
2018-12-25T09:50:27.232Z,1.82
2018-12-25T09:52:57.794Z,1.86
2018-12-25T09:55:28.319Z,1.92
2018-12-25T09:57:58.762Z,2.00
2018-12-25T10:00:29.323Z,2.06
2018-12-25T10:02:59.982Z,2.16
2018-12-25T10:05:30.322Z,2.22
2018-12-25T10:08:00.871Z,2.30
2018-12-25T10:10:33.089Z,2.35
2018-12-25T10:13:03.534Z,2.42
2018-12-25T10:15:33.895Z,2.40
2018-12-25T10:18:04.421Z,2.38
2018-12-25T10:20:35.075Z,2.44
2018-12-25T10:23:05.644Z,2.49
2018-12-25T10:25:36.274Z,2.49
2018-12-25T10:28:06.823Z,2.50
2018-12-25T10:30:37.370Z,2.51
2018-12-25T10:33:07.920Z,2.57
2018-12-25T10:35:38.353Z,2.53
2018-12-25T10:38:08.811Z,2.59
2018-12-25T10:40:39.274Z,2.60
2018-12-25T10:43:09.871Z,2.61
2018-12-25T10:45:40.728Z,2.61
2018-12-25T10:48:11.348Z,2.60
2018-12-25T10:50:41.997Z,2.59
2018-12-25T10:53:12.655Z,2.61
2018-12-25T10:55:43.210Z,2.63
2018-12-25T10:58:13.778Z,2.65
2018-12-25T11:00:50.602Z,2.71
2018-12-25T11:03:21.474Z,2.82
2018-12-25T11:05:51.915Z,2.82
2018-12-25T11:08:22.395Z,2.87
2018-12-25T11:10:53.082Z,2.90
2018-12-25T11:13:23.584Z,2.91
2018-12-25T11:15:54.609Z,2.95
2018-12-25T11:18:25.314Z,2.94
2018-12-25T11:20:56.097Z,2.97
2018-12-25T11:23:26.659Z,3.00
2018-12-25T11:25:57.184Z,3.01
2018-12-25T11:28:27.664Z,3.04
2018-12-25T11:30:58.409Z,3.06
2018-12-25T11:33:28.864Z,3.08
2018-12-25T11:35:59.255Z,3.09
2018-12-25T11:38:29.685Z,3.06
2018-12-25T11:41:00.283Z,3.06
2018-12-25T11:43:30.912Z,3.03
2018-12-25T11:46:01.509Z,3.03
2018-12-25T11:48:31.917Z,3.03
2018-12-25T11:51:02.474Z,3.02
2018-12-25T11:53:33.034Z,3.02
2018-12-25T11:56:03.774Z,3.02
2018-12-25T11:58:34.212Z,3.03
2018-12-25T12:01:04.822Z,3.00
2018-12-25T12:03:35.563Z,3.00
2018-12-25T12:06:06.098Z,3.02
2018-12-25T12:08:36.543Z,3.09
2018-12-25T12:11:07.069Z,3.08
2018-12-25T12:13:37.690Z,3.04
2018-12-25T12:16:08.451Z,3.02
2018-12-25T12:18:38.955Z,3.05
2018-12-25T12:21:09.482Z,3.03
2018-12-25T12:23:40.045Z,3.06
2018-12-25T12:26:11.572Z,3.04
2018-12-25T12:28:42.054Z,3.03
2018-12-25T12:31:12.575Z,3.07
2018-12-25T12:33:43.066Z,3.06
2018-12-25T12:36:13.565Z,3.05
2018-12-25T12:38:44.022Z,3.01
2018-12-25T12:41:14.679Z,3.04
2018-12-25T12:43:45.214Z,3.04
2018-12-25T12:46:15.744Z,3.05
2018-12-25T12:48:46.293Z,3.03
2018-12-25T12:51:16.819Z,3.00
2018-12-25T12:53:47.169Z,3.01
2018-12-25T12:56:17.699Z,3.02
2018-12-25T12:58:48.152Z,3.07
2018-12-25T13:01:18.735Z,3.06
2018-12-25T13:03:49.272Z,3.08
2018-12-25T13:06:19.875Z,3.10
2018-12-25T13:08:50.236Z,3.11
2018-12-25T13:11:20.861Z,3.08
2018-12-25T13:13:51.392Z,3.09
2018-12-25T13:16:22.045Z,3.09
2018-12-25T13:18:52.531Z,3.12
2018-12-25T13:21:23.002Z,3.13
2018-12-25T13:23:53.655Z,3.12
2018-12-25T13:26:24.078Z,3.15
2018-12-25T13:28:54.930Z,3.15
2018-12-25T13:31:25.412Z,3.18
2018-12-25T13:33:55.890Z,3.19
2018-12-25T13:36:26.574Z,3.16
2018-12-25T13:38:57.124Z,3.14
2018-12-25T13:41:27.649Z,3.15
2018-12-25T13:43:58.060Z,3.17
2018-12-25T13:46:28.594Z,3.14
2018-12-25T13:48:59.092Z,3.14
2018-12-25T13:51:30.012Z,3.15
2018-12-25T13:54:00.523Z,3.17
2018-12-25T13:56:31.054Z,3.18
2018-12-25T13:59:01.484Z,3.19
2018-12-25T14:01:31.978Z,3.19
2018-12-25T14:04:02.548Z,3.21
2018-12-25T14:06:32.984Z,3.22
2018-12-25T14:09:04.075Z,3.21
2018-12-25T14:11:34.639Z,3.23
2018-12-25T14:14:05.154Z,3.24
2018-12-25T14:16:35.954Z,3.24
2018-12-25T14:19:06.531Z,3.27
2018-12-25T14:21:37.484Z,3.31
2018-12-25T14:24:08.240Z,3.32
2018-12-25T14:26:38.653Z,3.29
2018-12-25T14:29:09.279Z,3.33
2018-12-25T14:31:39.920Z,3.32
2018-12-25T14:34:10.713Z,3.35
2018-12-25T14:36:41.250Z,3.39
2018-12-25T14:39:11.764Z,3.42
2018-12-25T14:41:42.229Z,3.39
2018-12-25T14:44:13.005Z,3.40
2018-12-25T14:46:43.585Z,3.40
2018-12-25T14:49:14.010Z,3.43
2018-12-25T14:51:44.555Z,3.43
2018-12-25T14:54:15.167Z,3.40
2018-12-25T14:56:45.732Z,3.43
2018-12-25T14:59:16.192Z,3.42
2018-12-25T15:01:46.988Z,3.39
2018-12-25T15:04:17.465Z,3.38
2018-12-25T15:06:48.209Z,3.38
2018-12-25T15:09:18.659Z,3.37
2018-12-25T15:11:49.108Z,3.39
2018-12-25T15:14:19.690Z,3.42
2018-12-25T15:16:50.209Z,3.42
2018-12-25T15:19:20.675Z,3.45
2018-12-25T15:21:51.193Z,3.49
2018-12-25T15:24:21.696Z,3.52
2018-12-25T15:26:52.193Z,3.54
2018-12-25T15:29:23.565Z,3.52
2018-12-25T15:31:55.101Z,3.53
2018-12-25T15:34:25.598Z,3.54
2018-12-25T15:36:56.393Z,3.54
2018-12-25T15:39:26.865Z,3.58
2018-12-25T15:41:57.375Z,3.54
2018-12-25T15:44:27.843Z,3.57
2018-12-25T15:46:58.305Z,3.53
2018-12-25T15:49:28.824Z,3.54
2018-12-25T15:51:59.393Z,3.56
2018-12-25T15:54:29.863Z,3.55
2018-12-25T15:57:02.564Z,3.53
2018-12-25T15:59:33.030Z,3.54
2018-12-25T16:02:03.501Z,3.54
2018-12-25T16:04:34.054Z,3.55
2018-12-25T16:07:04.622Z,3.58
2018-12-25T16:09:35.156Z,3.58
2018-12-25T16:12:05.755Z,3.57
2018-12-25T16:14:36.284Z,3.59
2018-12-25T16:17:06.962Z,3.57
2018-12-25T16:19:37.583Z,3.54
2018-12-25T16:22:08.045Z,3.59
2018-12-25T16:24:38.771Z,3.56
2018-12-25T16:27:09.251Z,3.58
2018-12-25T16:29:39.849Z,3.55
2018-12-25T16:32:10.436Z,3.60
2018-12-25T16:34:40.906Z,3.57
2018-12-25T16:37:11.402Z,3.60
2018-12-25T16:39:41.989Z,3.59
2018-12-25T16:42:12.422Z,3.65
2018-12-25T16:44:43.305Z,3.66
2018-12-25T16:47:14.047Z,3.64
2018-12-25T16:49:44.683Z,3.62
2018-12-25T16:52:15.160Z,3.64
2018-12-25T16:54:45.663Z,3.66
2018-12-25T16:57:16.319Z,3.63
2018-12-25T16:59:46.998Z,3.65
2018-12-25T17:02:17.355Z,3.66
2018-12-25T17:04:47.835Z,3.68
2018-12-25T17:07:18.289Z,3.70
2018-12-25T17:09:48.955Z,3.72
2018-12-25T17:12:19.419Z,3.74
2018-12-25T17:14:49.880Z,3.73
2018-12-25T17:17:20.384Z,3.74
2018-12-25T17:19:50.784Z,3.78
2018-12-25T17:22:21.454Z,3.75
2018-12-25T17:24:52.155Z,3.74
2018-12-25T17:27:22.604Z,3.76
2018-12-25T17:29:53.285Z,3.73
2018-12-25T17:32:23.862Z,3.73
2018-12-25T17:34:54.374Z,3.74
2018-12-25T17:37:25.019Z,3.75
2018-12-25T17:39:55.544Z,3.76
2018-12-25T17:42:26.129Z,3.74
2018-12-25T17:44:56.666Z,3.73
2018-12-25T17:47:27.110Z,3.77
2018-12-25T17:49:57.571Z,3.76
2018-12-25T17:52:28.110Z,3.76
2018-12-25T17:54:58.671Z,3.77
2018-12-25T17:57:29.260Z,3.75
2018-12-25T17:59:59.740Z,3.73
2018-12-25T18:02:30.312Z,3.76
2018-12-25T18:05:00.949Z,3.76
2018-12-25T18:07:31.492Z,3.78
2018-12-25T18:10:01.942Z,3.80
2018-12-25T18:12:32.461Z,3.81
2018-12-25T18:15:03.137Z,3.76
2018-12-25T18:17:33.650Z,3.75
2018-12-25T18:20:04.242Z,3.73
2018-12-25T18:22:35.555Z,3.76
2018-12-25T18:25:06.053Z,3.76
2018-12-25T18:27:36.705Z,3.74
2018-12-25T18:30:07.684Z,3.78
2018-12-25T18:32:38.079Z,3.74
2018-12-25T18:35:08.656Z,3.74
2018-12-25T18:37:39.243Z,3.75
2018-12-25T18:40:09.786Z,3.74
2018-12-25T18:42:40.215Z,3.77
2018-12-25T18:45:10.784Z,3.74
2018-12-25T18:47:41.329Z,3.74
2018-12-25T18:50:12.052Z,3.68
2018-12-25T18:52:43.019Z,3.70
2018-12-25T18:55:13.593Z,3.69
2018-12-25T18:57:44.400Z,3.72
2018-12-25T19:00:14.967Z,3.68
2018-12-25T19:02:45.396Z,3.67
2018-12-25T19:05:16.060Z,3.71
2018-12-25T19:07:46.641Z,3.70
2018-12-25T19:10:17.073Z,3.67
2018-12-25T19:12:47.640Z,3.69
2018-12-25T19:15:27.818Z,3.61
2018-12-25T19:18:00.484Z,3.60
2018-12-25T19:20:31.089Z,3.59
2018-12-25T19:23:01.626Z,3.57
2018-12-25T19:25:32.129Z,3.59
2018-12-25T19:28:02.530Z,3.60
2018-12-25T19:30:36.355Z,3.58
2018-12-25T19:33:07.009Z,3.58
2018-12-25T19:35:37.632Z,3.58
2018-12-25T19:38:08.179Z,3.62
2018-12-25T19:40:38.773Z,3.59
2018-12-25T19:43:11.073Z,3.62
2018-12-25T19:45:41.786Z,3.64
2018-12-25T19:48:12.422Z,3.63
2018-12-25T19:50:43.001Z,3.64
2018-12-25T19:53:13.579Z,3.64
2018-12-25T19:55:44.375Z,3.63
2018-12-25T19:58:14.916Z,3.65
2018-12-25T20:00:45.530Z,3.67
2018-12-25T20:03:31.395Z,3.67
2018-12-25T20:06:59.272Z,3.72
2018-12-25T20:10:10.243Z,3.70
2018-12-25T20:13:38.105Z,3.70
2018-12-25T20:16:55.906Z,3.74
2018-12-25T20:20:15.739Z,3.72
2018-12-25T20:23:36.124Z,3.67
2018-12-25T20:26:49.793Z,3.65
2018-12-25T20:30:03.754Z,3.68
2018-12-25T20:33:29.119Z,3.71
2018-12-25T20:36:55.824Z,3.73
2018-12-25T20:40:24.105Z,3.66
2018-12-25T20:43:42.767Z,3.68
2018-12-25T20:47:01.823Z,3.68
2018-12-25T20:50:27.970Z,3.69
2018-12-25T20:53:55.906Z,3.66
2018-12-25T20:57:23.892Z,3.64
2018-12-25T21:00:33.365Z,3.67
2018-12-25T21:04:01.380Z,3.63
2018-12-25T21:07:19.790Z,3.68
2018-12-25T21:10:47.802Z,3.67
2018-12-25T21:14:10.562Z,3.70
2018-12-25T21:17:38.574Z,3.65
2018-12-25T21:21:02.182Z,3.67
2018-12-25T21:24:30.121Z,3.70
2018-12-25T21:27:38.160Z,3.68
2018-12-25T21:30:10.627Z,3.69
2018-12-25T21:32:43.864Z,3.70
2018-12-25T21:35:21.872Z,3.73
2018-12-25T21:37:54.439Z,3.75
2018-12-25T21:40:25.150Z,3.74
2018-12-25T21:42:57.202Z,3.77
2018-12-25T21:45:27.751Z,3.80
2018-12-25T21:47:58.643Z,3.77
2018-12-25T21:50:29.870Z,3.75
2018-12-25T21:53:00.393Z,3.78
2018-12-25T21:55:30.986Z,3.75
2018-12-25T21:58:01.924Z,3.76
2018-12-25T22:00:35.486Z,3.76
2018-12-25T22:03:06.255Z,3.74
2018-12-25T22:05:36.860Z,3.78
2018-12-25T22:08:08.214Z,3.71
2018-12-25T22:10:38.601Z,3.70
2018-12-25T22:13:09.137Z,3.67
2018-12-25T22:15:39.623Z,3.67
2018-12-25T22:18:10.174Z,3.65
2018-12-25T22:20:41.521Z,3.61
2018-12-25T22:23:12.066Z,3.64
2018-12-25T22:25:42.714Z,3.60
2018-12-25T22:28:13.423Z,3.59
2018-12-25T22:30:44.004Z,3.60
2018-12-25T22:33:14.406Z,3.52
2018-12-25T22:35:45.005Z,3.52
2018-12-25T22:38:15.586Z,3.53
2018-12-25T22:40:46.132Z,3.47
2018-12-25T22:43:16.713Z,3.44
2018-12-25T22:45:47.176Z,3.46
2018-12-25T22:48:17.771Z,3.46
2018-12-25T22:50:48.266Z,3.45
2018-12-25T22:53:18.884Z,3.40
2018-12-25T22:55:49.254Z,3.41
2018-12-25T22:58:19.858Z,3.38
2018-12-25T23:00:51.926Z,3.37
2018-12-25T23:03:22.646Z,3.39
2018-12-25T23:05:53.134Z,3.38
2018-12-25T23:08:23.557Z,3.36
2018-12-25T23:10:54.066Z,3.33
2018-12-25T23:13:24.655Z,3.36
2018-12-25T23:15:55.201Z,3.39
2018-12-25T23:18:26.045Z,3.41
2018-12-25T23:20:56.488Z,3.33
2018-12-25T23:23:26.886Z,3.30
2018-12-25T23:25:57.373Z,3.29
2018-12-25T23:28:27.843Z,3.33
2018-12-25T23:30:58.466Z,3.29
2018-12-25T23:33:28.992Z,3.32
2018-12-25T23:35:59.535Z,3.34
2018-12-25T23:38:30.817Z,3.33
2018-12-25T23:41:01.326Z,3.32
2018-12-25T23:43:31.803Z,3.32
2018-12-25T23:46:02.344Z,3.31
2018-12-25T23:48:32.874Z,3.25
2018-12-25T23:51:03.405Z,3.28
2018-12-25T23:53:33.977Z,3.28
2018-12-25T23:56:04.635Z,3.29
2018-12-25T23:58:35.185Z,3.29
